sensor_id;sensor_type;location;lat;lon;timestamp;P1;durP1;ratioP1;P2;durP2;ratioP2
21183;SDS011;18176;49.502;11.754;2022-08-01T00:03:41;4.72;;;4.05;;
21183;SDS011;18176;49.502;11.754;2022-08-01T00:07:38;6.22;;;4.35;;
21183;SDS011;18176;49.502;11.754;2022-08-01T00:11:35;4.63;;;4.10;;
21183;SDS011;18176;49.502;11.754;2022-08-01T00:15:32;7.82;;;4.32;;
21183;SDS011;18176;49.502;11.754;2022-08-01T00:19:30;5.05;;;4.22;;
21183;SDS011;18176;49.502;11.754;2022-08-01T00:23:27;8.70;;;4.40;;
21183;SDS011;18176;49.502;11.754;2022-08-01T00:27:24;6.65;;;4.22;;
21183;SDS011;18176;49.502;11.754;2022-08-01T00:31:22;5.00;;;3.97;;
21183;SDS011;18176;49.502;11.754;2022-08-01T00:35:19;5.25;;;4.25;;
21183;SDS011;18176;49.502;11.754;2022-08-01T00:39:16;5.20;;;4.70;;
21183;SDS011;18176;49.502;11.754;2022-08-01T00:43:13;7.07;;;4.85;;
21183;SDS011;18176;49.502;11.754;2022-08-01T00:47:11;4.85;;;4.43;;
21183;SDS011;18176;49.502;11.754;2022-08-01T00:51:08;5.10;;;4.60;;
21183;SDS011;18176;49.502;11.754;2022-08-01T00:55:05;4.68;;;4.22;;
21183;SDS011;18176;49.502;11.754;2022-08-01T00:59:08;4.90;;;4.35;;
21183;SDS011;18176;49.502;11.754;2022-08-01T01:03:10;5.45;;;4.95;;
21183;SDS011;18176;49.502;11.754;2022-08-01T01:07:21;7.72;;;4.65;;
21183;SDS011;18176;49.502;11.754;2022-08-01T01:16:20;6.18;;;4.50;;
21183;SDS011;18176;49.502;11.754;2022-08-01T01:20:20;5.57;;;4.75;;
21183;SDS011;18176;49.502;11.754;2022-08-01T01:33:20;8.57;;;4.68;;
21183;SDS011;18176;49.502;11.754;2022-08-01T01:37:20;6.18;;;4.63;;
21183;SDS011;18176;49.502;11.754;2022-08-01T01:41:21;5.57;;;5.05;;
21183;SDS011;18176;49.502;11.754;2022-08-01T01:45:20;5.60;;;5.10;;
21183;SDS011;18176;49.502;11.754;2022-08-01T01:49:21;5.63;;;4.65;;
21183;SDS011;18176;49.502;11.754;2022-08-01T01:53:23;6.93;;;4.40;;
21183;SDS011;18176;49.502;11.754;2022-08-01T01:57:24;5.80;;;4.55;;
21183;SDS011;18176;49.502;11.754;2022-08-01T02:01:25;5.07;;;4.22;;
21183;SDS011;18176;49.502;11.754;2022-08-01T02:05:46;5.53;;;4.43;;
21183;SDS011;18176;49.502;11.754;2022-08-01T02:09:46;5.38;;;4.22;;
21183;SDS011;18176;49.502;11.754;2022-08-01T02:13:50;4.95;;;4.20;;
21183;SDS011;18176;49.502;11.754;2022-08-01T02:17:57;6.72;;;4.15;;
21183;SDS011;18176;49.502;11.754;2022-08-01T02:22:01;5.35;;;3.90;;
21183;SDS011;18176;49.502;11.754;2022-08-01T02:26:08;4.90;;;4.00;;
21183;SDS011;18176;49.502;11.754;2022-08-01T02:30:11;5.15;;;3.85;;
21183;SDS011;18176;49.502;11.754;2022-08-01T02:34:11;7.43;;;4.10;;
21183;SDS011;18176;49.502;11.754;2022-08-01T02:38:14;6.07;;;4.13;;
21183;SDS011;18176;49.502;11.754;2022-08-01T02:42:13;4.57;;;3.88;;
21183;SDS011;18176;49.502;11.754;2022-08-01T02:46:17;4.20;;;3.80;;
21183;SDS011;18176;49.502;11.754;2022-08-01T02:50:22;5.15;;;3.80;;
21183;SDS011;18176;49.502;11.754;2022-08-01T02:54:22;4.07;;;3.67;;
21183;SDS011;18176;49.502;11.754;2022-08-01T02:58:22;5.38;;;3.55;;
21183;SDS011;18176;49.502;11.754;2022-08-01T03:02:25;3.97;;;3.63;;
21183;SDS011;18176;49.502;11.754;2022-08-01T03:06:25;4.95;;;3.58;;
21183;SDS011;18176;49.502;11.754;2022-08-01T03:10:25;4.38;;;3.50;;
21183;SDS011;18176;49.502;11.754;2022-08-01T03:14:27;5.30;;;4.05;;
21183;SDS011;18176;49.502;11.754;2022-08-01T03:18:29;5.13;;;3.35;;
21183;SDS011;18176;49.502;11.754;2022-08-01T03:22:28;4.85;;;3.80;;
21183;SDS011;18176;49.502;11.754;2022-08-01T03:26:29;5.70;;;3.85;;
21183;SDS011;18176;49.502;11.754;2022-08-01T03:30:30;5.20;;;3.38;;
21183;SDS011;18176;49.502;11.754;2022-08-01T03:34:32;3.95;;;3.58;;
21183;SDS011;18176;49.502;11.754;2022-08-01T03:38:29;4.13;;;3.60;;
21183;SDS011;18176;49.502;11.754;2022-08-01T03:42:32;4.07;;;3.60;;
21183;SDS011;18176;49.502;11.754;2022-08-01T03:46:36;4.60;;;3.60;;
21183;SDS011;18176;49.502;11.754;2022-08-01T03:50:45;4.93;;;3.80;;
21183;SDS011;18176;49.502;11.754;2022-08-01T03:54:47;5.88;;;3.97;;
21183;SDS011;18176;49.502;11.754;2022-08-01T03:58:47;5.40;;;3.75;;
21183;SDS011;18176;49.502;11.754;2022-08-01T04:02:47;5.35;;;4.00;;
21183;SDS011;18176;49.502;11.754;2022-08-01T04:06:45;3.83;;;3.30;;
21183;SDS011;18176;49.502;11.754;2022-08-01T04:10:44;5.55;;;3.88;;
21183;SDS011;18176;49.502;11.754;2022-08-01T04:14:45;4.18;;;3.78;;
21183;SDS011;18176;49.502;11.754;2022-08-01T04:18:43;5.80;;;3.72;;
21183;SDS011;18176;49.502;11.754;2022-08-01T04:22:40;5.25;;;3.90;;
21183;SDS011;18176;49.502;11.754;2022-08-01T04:26:38;5.03;;;3.55;;
21183;SDS011;18176;49.502;11.754;2022-08-01T04:30:39;5.65;;;3.95;;
21183;SDS011;18176;49.502;11.754;2022-08-01T04:34:39;6.82;;;4.28;;
21183;SDS011;18176;49.502;11.754;2022-08-01T04:38:40;4.10;;;3.70;;
21183;SDS011;18176;49.502;11.754;2022-08-01T04:42:41;7.05;;;4.00;;
21183;SDS011;18176;49.502;11.754;2022-08-01T04:46:39;4.72;;;3.75;;
21183;SDS011;18176;49.502;11.754;2022-08-01T04:50:40;4.93;;;3.80;;
21183;SDS011;18176;49.502;11.754;2022-08-01T04:54:38;3.75;;;3.45;;
21183;SDS011;18176;49.502;11.754;2022-08-01T04:58:35;6.25;;;3.75;;
21183;SDS011;18176;49.502;11.754;2022-08-01T05:02:32;5.13;;;3.60;;
21183;SDS011;18176;49.502;11.754;2022-08-01T05:06:29;4.28;;;3.47;;
21183;SDS011;18176;49.502;11.754;2022-08-01T05:10:27;6.80;;;4.03;;
21183;SDS011;18176;49.502;11.754;2022-08-01T05:14:27;4.93;;;3.70;;
21183;SDS011;18176;49.502;11.754;2022-08-01T05:18:28;7.25;;;3.47;;
21183;SDS011;18176;49.502;11.754;2022-08-01T05:22:26;10.35;;;5.70;;
21183;SDS011;18176;49.502;11.754;2022-08-01T05:26:23;12.45;;;5.15;;
21183;SDS011;18176;49.502;11.754;2022-08-01T05:30:21;11.27;;;5.75;;
21183;SDS011;18176;49.502;11.754;2022-08-01T05:34:19;6.50;;;4.22;;
21183;SDS011;18176;49.502;11.754;2022-08-01T05:38:17;7.45;;;4.60;;
21183;SDS011;18176;49.502;11.754;2022-08-01T05:42:14;5.70;;;3.70;;
21183;SDS011;18176;49.502;11.754;2022-08-01T05:46:11;4.97;;;4.13;;
21183;SDS011;18176;49.502;11.754;2022-08-01T05:50:08;5.70;;;4.47;;
21183;SDS011;18176;49.502;11.754;2022-08-01T05:54:05;5.03;;;3.30;;
21183;SDS011;18176;49.502;11.754;2022-08-01T05:58:03;4.82;;;3.10;;
21183;SDS011;18176;49.502;11.754;2022-08-01T06:02:00;7.65;;;5.30;;
21183;SDS011;18176;49.502;11.754;2022-08-01T06:05:57;4.68;;;3.08;;
21183;SDS011;18176;49.502;11.754;2022-08-01T06:09:55;9.25;;;2.92;;
21183;SDS011;18176;49.502;11.754;2022-08-01T06:13:52;4.22;;;2.80;;
21183;SDS011;18176;49.502;11.754;2022-08-01T06:17:50;3.75;;;2.80;;
21183;SDS011;18176;49.502;11.754;2022-08-01T06:21:47;3.83;;;2.90;;
21183;SDS011;18176;49.502;11.754;2022-08-01T06:25:44;4.30;;;3.20;;
21183;SDS011;18176;49.502;11.754;2022-08-01T06:29:41;4.88;;;3.00;;
21183;SDS011;18176;49.502;11.754;2022-08-01T06:33:49;4.43;;;3.00;;
21183;SDS011;18176;49.502;11.754;2022-08-01T06:37:46;4.35;;;2.50;;
21183;SDS011;18176;49.502;11.754;2022-08-01T06:41:43;3.85;;;3.03;;
21183;SDS011;18176;49.502;11.754;2022-08-01T06:45:42;8.05;;;2.97;;
21183;SDS011;18176;49.502;11.754;2022-08-01T06:49:41;5.57;;;2.90;;
21183;SDS011;18176;49.502;11.754;2022-08-01T06:53:38;4.30;;;2.50;;
21183;SDS011;18176;49.502;11.754;2022-08-01T06:57:36;7.88;;;3.00;;
21183;SDS011;18176;49.502;11.754;2022-08-01T07:01:50;3.33;;;2.50;;
21183;SDS011;18176;49.502;11.754;2022-08-01T07:05:47;4.72;;;2.72;;
21183;SDS011;18176;49.502;11.754;2022-08-01T07:09:44;4.38;;;3.03;;
21183;SDS011;18176;49.502;11.754;2022-08-01T07:13:43;3.28;;;2.80;;
21183;SDS011;18176;49.502;11.754;2022-08-01T07:17:42;6.10;;;3.13;;
21183;SDS011;18176;49.502;11.754;2022-08-01T07:21:39;3.47;;;2.60;;
21183;SDS011;18176;49.502;11.754;2022-08-01T07:25:40;3.50;;;2.50;;
21183;SDS011;18176;49.502;11.754;2022-08-01T07:29:47;5.53;;;2.53;;
21183;SDS011;18176;49.502;11.754;2022-08-01T07:33:44;2.83;;;2.55;;
21183;SDS011;18176;49.502;11.754;2022-08-01T07:37:44;5.05;;;2.15;;
21183;SDS011;18176;49.502;11.754;2022-08-01T07:41:44;5.57;;;2.50;;
21183;SDS011;18176;49.502;11.754;2022-08-01T07:46:02;2.33;;;2.13;;
21183;SDS011;18176;49.502;11.754;2022-08-01T07:50:00;3.65;;;2.17;;
21183;SDS011;18176;49.502;11.754;2022-08-01T07:53:58;2.88;;;2.30;;
21183;SDS011;18176;49.502;11.754;2022-08-01T07:57:55;2.50;;;2.30;;
21183;SDS011;18176;49.502;11.754;2022-08-01T08:01:53;4.25;;;2.30;;
21183;SDS011;18176;49.502;11.754;2022-08-01T08:05:50;3.47;;;2.35;;
21183;SDS011;18176;49.502;11.754;2022-08-01T08:09:55;4.90;;;2.10;;
21183;SDS011;18176;49.502;11.754;2022-08-01T08:13:52;4.97;;;2.45;;
21183;SDS011;18176;49.502;11.754;2022-08-01T08:17:49;3.35;;;2.40;;
21183;SDS011;18176;49.502;11.754;2022-08-01T08:21:50;3.80;;;2.20;;
21183;SDS011;18176;49.502;11.754;2022-08-01T08:25:47;3.05;;;2.30;;
21183;SDS011;18176;49.502;11.754;2022-08-01T08:29:44;2.83;;;2.15;;
21183;SDS011;18176;49.502;11.754;2022-08-01T08:33:45;2.88;;;2.53;;
21183;SDS011;18176;49.502;11.754;2022-08-01T08:37:42;2.60;;;2.40;;
21183;SDS011;18176;49.502;11.754;2022-08-01T08:41:43;5.40;;;2.80;;
21183;SDS011;18176;49.502;11.754;2022-08-01T08:45:44;4.72;;;2.28;;
21183;SDS011;18176;49.502;11.754;2022-08-01T08:49:55;2.78;;;2.30;;
21183;SDS011;18176;49.502;11.754;2022-08-01T08:53:54;3.53;;;2.50;;
21183;SDS011;18176;49.502;11.754;2022-08-01T08:57:53;3.60;;;2.20;;
21183;SDS011;18176;49.502;11.754;2022-08-01T09:01:52;3.50;;;2.33;;
21183;SDS011;18176;49.502;11.754;2022-08-01T09:05:49;2.40;;;2.20;;
21183;SDS011;18176;49.502;11.754;2022-08-01T09:09:46;2.90;;;2.20;;
21183;SDS011;18176;49.502;11.754;2022-08-01T09:18:06;4.18;;;2.33;;
21183;SDS011;18176;49.502;11.754;2022-08-01T09:22:04;3.72;;;2.38;;
21183;SDS011;18176;49.502;11.754;2022-08-01T09:26:08;3.20;;;2.30;;
21183;SDS011;18176;49.502;11.754;2022-08-01T09:30:08;3.72;;;2.50;;
21183;SDS011;18176;49.502;11.754;2022-08-01T09:34:08;2.35;;;2.10;;
21183;SDS011;18176;49.502;11.754;2022-08-01T09:38:22;3.08;;;2.30;;
21183;SDS011;18176;49.502;11.754;2022-08-01T09:42:24;4.70;;;2.58;;
21183;SDS011;18176;49.502;11.754;2022-08-01T09:46:24;7.57;;;2.50;;
21183;SDS011;18176;49.502;11.754;2022-08-01T09:50:23;2.53;;;2.20;;
21183;SDS011;18176;49.502;11.754;2022-08-01T09:54:40;2.20;;;2.00;;
21183;SDS011;18176;49.502;11.754;2022-08-01T09:58:52;4.03;;;1.92;;
21183;SDS011;18176;49.502;11.754;2022-08-01T10:02:57;3.95;;;2.30;;
21183;SDS011;18176;49.502;11.754;2022-08-01T10:07:06;3.92;;;2.08;;
21183;SDS011;18176;49.502;11.754;2022-08-01T10:11:06;2.90;;;2.35;;
21183;SDS011;18176;49.502;11.754;2022-08-01T10:15:07;6.25;;;2.22;;
21183;SDS011;18176;49.502;11.754;2022-08-01T10:19:07;2.92;;;1.90;;
21183;SDS011;18176;49.502;11.754;2022-08-01T10:23:10;2.30;;;1.83;;
21183;SDS011;18176;49.502;11.754;2022-08-01T10:27:09;2.55;;;1.60;;
21183;SDS011;18176;49.502;11.754;2022-08-01T10:31:08;3.85;;;1.83;;
21183;SDS011;18176;49.502;11.754;2022-08-01T10:35:09;2.50;;;1.95;;
21183;SDS011;18176;49.502;11.754;2022-08-01T10:39:33;2.40;;;1.90;;
21183;SDS011;18176;49.502;11.754;2022-08-01T10:43:31;4.10;;;1.90;;
21183;SDS011;18176;49.502;11.754;2022-08-01T10:47:48;2.78;;;1.90;;
21183;SDS011;18176;49.502;11.754;2022-08-01T10:52:07;2.63;;;2.00;;
21183;SDS011;18176;49.502;11.754;2022-08-01T10:56:14;2.78;;;2.30;;
21183;SDS011;18176;49.502;11.754;2022-08-01T11:00:17;2.40;;;2.20;;
21183;SDS011;18176;49.502;11.754;2022-08-01T11:04:16;2.63;;;1.95;;
21183;SDS011;18176;49.502;11.754;2022-08-01T11:08:22;3.63;;;1.70;;
21183;SDS011;18176;49.502;11.754;2022-08-01T11:12:19;2.15;;;1.92;;
21183;SDS011;18176;49.502;11.754;2022-08-01T11:20:28;1.67;;;1.52;;
21183;SDS011;18176;49.502;11.754;2022-08-01T11:29:12;1.67;;;1.52;;
21183;SDS011;18176;49.502;11.754;2022-08-01T11:33:18;1.95;;;1.42;;
21183;SDS011;18176;49.502;11.754;2022-08-01T11:37:35;1.40;;;1.30;;
21183;SDS011;18176;49.502;11.754;2022-08-01T11:41:34;1.75;;;1.30;;
21183;SDS011;18176;49.502;11.754;2022-08-01T11:49:47;3.95;;;1.30;;
21183;SDS011;18176;49.502;11.754;2022-08-01T11:53:51;1.65;;;1.52;;
21183;SDS011;18176;49.502;11.754;2022-08-01T11:57:51;1.77;;;1.48;;
21183;SDS011;18176;49.502;11.754;2022-08-01T12:02:25;1.60;;;1.30;;
21183;SDS011;18176;49.502;11.754;2022-08-01T12:06:28;3.58;;;1.52;;
21183;SDS011;18176;49.502;11.754;2022-08-01T12:10:28;1.95;;;1.60;;
21183;SDS011;18176;49.502;11.754;2022-08-01T12:14:45;1.70;;;1.58;;
21183;SDS011;18176;49.502;11.754;2022-08-01T12:18:52;4.28;;;1.50;;
21183;SDS011;18176;49.502;11.754;2022-08-01T12:22:53;2.50;;;1.77;;
21183;SDS011;18176;49.502;11.754;2022-08-01T12:26:51;2.72;;;1.60;;
21183;SDS011;18176;49.502;11.754;2022-08-01T12:30:48;5.13;;;1.63;;
21183;SDS011;18176;49.502;11.754;2022-08-01T12:34:46;1.60;;;1.50;;
21183;SDS011;18176;49.502;11.754;2022-08-01T12:38:43;1.60;;;1.50;;
21183;SDS011;18176;49.502;11.754;2022-08-01T12:42:41;1.60;;;1.50;;
21183;SDS011;18176;49.502;11.754;2022-08-01T12:46:41;2.70;;;1.70;;
21183;SDS011;18176;49.502;11.754;2022-08-01T12:50:42;6.55;;;1.60;;
21183;SDS011;18176;49.502;11.754;2022-08-01T12:59:21;4.22;;;1.33;;
21183;SDS011;18176;49.502;11.754;2022-08-01T13:03:23;1.52;;;1.40;;
21183;SDS011;18176;49.502;11.754;2022-08-01T13:07:20;3.13;;;1.48;;
21183;SDS011;18176;49.502;11.754;2022-08-01T13:11:17;3.05;;;1.40;;
21183;SDS011;18176;49.502;11.754;2022-08-01T13:15:16;4.68;;;1.90;;
21183;SDS011;18176;49.502;11.754;2022-08-01T13:19:41;2.90;;;1.70;;
21183;SDS011;18176;49.502;11.754;2022-08-01T13:24:02;4.20;;;3.10;;
21183;SDS011;18176;49.502;11.754;2022-08-01T13:28:16;3.47;;;2.00;;
21183;SDS011;18176;49.502;11.754;2022-08-01T13:32:19;7.93;;;3.50;;
21183;SDS011;18176;49.502;11.754;2022-08-01T13:36:26;1.80;;;1.70;;
21183;SDS011;18176;49.502;11.754;2022-08-01T13:40:25;3.58;;;1.50;;
21183;SDS011;18176;49.502;11.754;2022-08-01T13:44:23;2.72;;;1.50;;
21183;SDS011;18176;49.502;11.754;2022-08-01T13:48:20;1.95;;;1.30;;
21183;SDS011;18176;49.502;11.754;2022-08-01T13:52:19;1.58;;;1.48;;
21183;SDS011;18176;49.502;11.754;2022-08-01T13:56:16;1.80;;;1.63;;
21183;SDS011;18176;49.502;11.754;2022-08-01T14:00:14;1.60;;;1.50;;
21183;SDS011;18176;49.502;11.754;2022-08-01T14:04:12;2.55;;;1.65;;
21183;SDS011;18176;49.502;11.754;2022-08-01T14:08:09;1.90;;;1.80;;
21183;SDS011;18176;49.502;11.754;2022-08-01T14:12:09;2.22;;;1.73;;
21183;SDS011;18176;49.502;11.754;2022-08-01T14:16:06;3.17;;;1.70;;
21183;SDS011;18176;49.502;11.754;2022-08-01T14:20:04;2.40;;;1.52;;
21183;SDS011;18176;49.502;11.754;2022-08-01T14:24:01;1.70;;;1.60;;
21183;SDS011;18176;49.502;11.754;2022-08-01T14:27:59;3.78;;;2.00;;
21183;SDS011;18176;49.502;11.754;2022-08-01T14:31:56;1.80;;;1.70;;
21183;SDS011;18176;49.502;11.754;2022-08-01T14:35:53;1.90;;;1.80;;
21183;SDS011;18176;49.502;11.754;2022-08-01T14:40:11;2.95;;;1.90;;
21183;SDS011;18176;49.502;11.754;2022-08-01T14:44:08;1.80;;;1.70;;
21183;SDS011;18176;49.502;11.754;2022-08-01T14:48:05;1.92;;;1.77;;
21183;SDS011;18176;49.502;11.754;2022-08-01T14:52:02;2.13;;;1.70;;
21183;SDS011;18176;49.502;11.754;2022-08-01T14:56:00;1.70;;;1.60;;
21183;SDS011;18176;49.502;11.754;2022-08-01T14:59:57;1.67;;;1.58;;
21183;SDS011;18176;49.502;11.754;2022-08-01T15:03:54;2.30;;;1.63;;
21183;SDS011;18176;49.502;11.754;2022-08-01T15:07:52;2.53;;;1.70;;
21183;SDS011;18176;49.502;11.754;2022-08-01T15:11:49;1.83;;;1.60;;
21183;SDS011;18176;49.502;11.754;2022-08-01T15:15:46;2.63;;;1.52;;
21183;SDS011;18176;49.502;11.754;2022-08-01T15:19:43;1.70;;;1.60;;
21183;SDS011;18176;49.502;11.754;2022-08-01T15:23:41;2.63;;;1.60;;
21183;SDS011;18176;49.502;11.754;2022-08-01T15:27:38;3.45;;;1.60;;
21183;SDS011;18176;49.502;11.754;2022-08-01T15:31:36;1.90;;;1.73;;
21183;SDS011;18176;49.502;11.754;2022-08-01T15:35:34;1.88;;;1.55;;
21183;SDS011;18176;49.502;11.754;2022-08-01T15:39:32;3.35;;;1.88;;
21183;SDS011;18176;49.502;11.754;2022-08-01T15:43:30;1.77;;;1.52;;
21183;SDS011;18176;49.502;11.754;2022-08-01T15:47:27;1.90;;;1.80;;
21183;SDS011;18176;49.502;11.754;2022-08-01T15:51:24;1.70;;;1.60;;
21183;SDS011;18176;49.502;11.754;2022-08-01T15:55:22;3.47;;;2.03;;
21183;SDS011;18176;49.502;11.754;2022-08-01T15:59:19;2.03;;;1.92;;
21183;SDS011;18176;49.502;11.754;2022-08-01T16:03:18;2.28;;;2.08;;
21183;SDS011;18176;49.502;11.754;2022-08-01T16:07:17;2.05;;;1.90;;
21183;SDS011;18176;49.502;11.754;2022-08-01T16:11:14;2.30;;;2.10;;
21183;SDS011;18176;49.502;11.754;2022-08-01T16:15:11;1.90;;;1.70;;
21183;SDS011;18176;49.502;11.754;2022-08-01T16:19:08;2.17;;;1.70;;
21183;SDS011;18176;49.502;11.754;2022-08-01T16:23:14;3.03;;;1.60;;
21183;SDS011;18176;49.502;11.754;2022-08-01T16:27:12;3.58;;;1.95;;
21183;SDS011;18176;49.502;11.754;2022-08-01T16:31:09;2.05;;;1.95;;
21183;SDS011;18176;49.502;11.754;2022-08-01T16:35:17;2.00;;;1.90;;
21183;SDS011;18176;49.502;11.754;2022-08-01T16:39:14;19.08;;;17.30;;
21183;SDS011;18176;49.502;11.754;2022-08-01T16:43:18;14.60;;;13.25;;
21183;SDS011;18176;49.502;11.754;2022-08-01T16:47:15;2.53;;;2.33;;
21183;SDS011;18176;49.502;11.754;2022-08-01T16:51:12;1.88;;;1.77;;
21183;SDS011;18176;49.502;11.754;2022-08-01T16:55:09;2.45;;;2.13;;
21183;SDS011;18176;49.502;11.754;2022-08-01T16:59:06;2.58;;;2.38;;
21183;SDS011;18176;49.502;11.754;2022-08-01T17:03:03;2.65;;;2.10;;
21183;SDS011;18176;49.502;11.754;2022-08-01T17:07:20;2.00;;;1.90;;
21183;SDS011;18176;49.502;11.754;2022-08-01T17:11:17;2.88;;;2.08;;
21183;SDS011;18176;49.502;11.754;2022-08-01T17:15:14;3.67;;;2.08;;
21183;SDS011;18176;49.502;11.754;2022-08-01T17:19:11;3.03;;;1.92;;
21183;SDS011;18176;49.502;11.754;2022-08-01T17:23:10;2.17;;;1.98;;
21183;SDS011;18176;49.502;11.754;2022-08-01T17:27:07;2.33;;;2.13;;
21183;SDS011;18176;49.502;11.754;2022-08-01T17:31:08;5.45;;;2.20;;
21183;SDS011;18176;49.502;11.754;2022-08-01T17:35:06;2.38;;;2.03;;
21183;SDS011;18176;49.502;11.754;2022-08-01T17:39:04;2.35;;;2.00;;
21183;SDS011;18176;49.502;11.754;2022-08-01T17:43:03;3.25;;;2.60;;
21183;SDS011;18176;49.502;11.754;2022-08-01T17:47:00;2.30;;;2.10;;
21183;SDS011;18176;49.502;11.754;2022-08-01T17:50:57;3.40;;;2.08;;
21183;SDS011;18176;49.502;11.754;2022-08-01T17:54:54;1.90;;;1.80;;
21183;SDS011;18176;49.502;11.754;2022-08-01T17:58:55;2.70;;;2.50;;
21183;SDS011;18176;49.502;11.754;2022-08-01T18:02:52;4.97;;;2.33;;
21183;SDS011;18176;49.502;11.754;2022-08-01T18:06:50;2.47;;;1.95;;
21183;SDS011;18176;49.502;11.754;2022-08-01T18:10:54;2.97;;;1.95;;
21183;SDS011;18176;49.502;11.754;2022-08-01T18:14:53;1.95;;;1.75;;
21183;SDS011;18176;49.502;11.754;2022-08-01T18:18:51;3.55;;;1.80;;
21183;SDS011;18176;49.502;11.754;2022-08-01T18:22:49;2.47;;;2.08;;
21183;SDS011;18176;49.502;11.754;2022-08-01T18:26:50;5.35;;;1.90;;
21183;SDS011;18176;49.502;11.754;2022-08-01T18:30:48;3.95;;;2.10;;
21183;SDS011;18176;49.502;11.754;2022-08-01T18:34:45;5.47;;;1.90;;
21183;SDS011;18176;49.502;11.754;2022-08-01T18:38:42;3.13;;;1.90;;
21183;SDS011;18176;49.502;11.754;2022-08-01T18:42:40;6.20;;;1.90;;
21183;SDS011;18176;49.502;11.754;2022-08-01T18:46:38;1.92;;;1.80;;
21183;SDS011;18176;49.502;11.754;2022-08-01T18:50:35;1.90;;;1.80;;
21183;SDS011;18176;49.502;11.754;2022-08-01T18:54:32;4.20;;;1.70;;
21183;SDS011;18176;49.502;11.754;2022-08-01T18:58:29;2.75;;;1.80;;
21183;SDS011;18176;49.502;11.754;2022-08-01T19:02:27;5.50;;;1.90;;
21183;SDS011;18176;49.502;11.754;2022-08-01T19:06:24;4.18;;;1.83;;
21183;SDS011;18176;49.502;11.754;2022-08-01T19:10:23;1.98;;;1.80;;
21183;SDS011;18176;49.502;11.754;2022-08-01T19:14:20;2.50;;;1.70;;
21183;SDS011;18176;49.502;11.754;2022-08-01T19:18:17;1.90;;;1.80;;
21183;SDS011;18176;49.502;11.754;2022-08-01T19:22:14;1.90;;;1.77;;
21183;SDS011;18176;49.502;11.754;2022-08-01T19:26:13;2.00;;;1.90;;
21183;SDS011;18176;49.502;11.754;2022-08-01T19:30:16;4.07;;;2.00;;
21183;SDS011;18176;49.502;11.754;2022-08-01T19:34:15;2.95;;;1.77;;
21183;SDS011;18176;49.502;11.754;2022-08-01T19:38:14;2.20;;;2.00;;
21183;SDS011;18176;49.502;11.754;2022-08-01T19:42:13;3.10;;;2.20;;
21183;SDS011;18176;49.502;11.754;2022-08-01T19:46:10;4.22;;;2.20;;
21183;SDS011;18176;49.502;11.754;2022-08-01T19:50:13;2.28;;;2.08;;
21183;SDS011;18176;49.502;11.754;2022-08-01T19:54:10;2.65;;;2.20;;
21183;SDS011;18176;49.502;11.754;2022-08-01T19:58:09;2.40;;;2.20;;
21183;SDS011;18176;49.502;11.754;2022-08-01T20:02:24;2.38;;;1.98;;
21183;SDS011;18176;49.502;11.754;2022-08-01T20:06:22;2.75;;;2.10;;
21183;SDS011;18176;49.502;11.754;2022-08-01T20:10:21;3.22;;;2.92;;
21183;SDS011;18176;49.502;11.754;2022-08-01T20:14:19;2.55;;;2.20;;
21183;SDS011;18176;49.502;11.754;2022-08-01T20:18:19;3.50;;;2.30;;
21183;SDS011;18176;49.502;11.754;2022-08-01T20:22:18;2.60;;;2.40;;
21183;SDS011;18176;49.502;11.754;2022-08-01T20:26:22;3.47;;;2.33;;
21183;SDS011;18176;49.502;11.754;2022-08-01T20:30:20;2.70;;;2.30;;
21183;SDS011;18176;49.502;11.754;2022-08-01T20:34:21;4.30;;;2.75;;
21183;SDS011;18176;49.502;11.754;2022-08-01T20:38:24;5.78;;;2.45;;
21183;SDS011;18176;49.502;11.754;2022-08-01T20:42:26;2.63;;;2.42;;
21183;SDS011;18176;49.502;11.754;2022-08-01T20:46:24;2.85;;;2.35;;
21183;SDS011;18176;49.502;11.754;2022-08-01T20:50:23;3.70;;;2.60;;
21183;SDS011;18176;49.502;11.754;2022-08-01T20:54:49;3.70;;;2.83;;
21183;SDS011;18176;49.502;11.754;2022-08-01T20:58:59;4.70;;;3.03;;
21183;SDS011;18176;49.502;11.754;2022-08-01T21:03:07;3.65;;;2.78;;
21183;SDS011;18176;49.502;11.754;2022-08-01T21:11:19;3.95;;;3.10;;
21183;SDS011;18176;49.502;11.754;2022-08-01T21:20:15;3.53;;;3.22;;
21183;SDS011;18176;49.502;11.754;2022-08-01T21:24:15;5.55;;;3.70;;
21183;SDS011;18176;49.502;11.754;2022-08-01T21:28:14;7.32;;;5.72;;
21183;SDS011;18176;49.502;11.754;2022-08-01T21:32:11;4.13;;;3.63;;
21183;SDS011;18176;49.502;11.754;2022-08-01T21:36:11;8.73;;;4.18;;
21183;SDS011;18176;49.502;11.754;2022-08-01T21:40:10;5.32;;;3.60;;
21183;SDS011;18176;49.502;11.754;2022-08-01T21:44:08;4.50;;;3.15;;
21183;SDS011;18176;49.502;11.754;2022-08-01T21:48:09;3.55;;;2.95;;
21183;SDS011;18176;49.502;11.754;2022-08-01T21:52:13;3.58;;;3.17;;
21183;SDS011;18176;49.502;11.754;2022-08-01T22:00:41;4.63;;;3.97;;
21183;SDS011;18176;49.502;11.754;2022-08-01T22:04:48;4.90;;;3.60;;
21183;SDS011;18176;49.502;11.754;2022-08-01T22:08:58;5.50;;;3.50;;
21183;SDS011;18176;49.502;11.754;2022-08-01T22:13:02;3.30;;;3.00;;
21183;SDS011;18176;49.502;11.754;2022-08-01T22:16:59;3.70;;;3.40;;
21183;SDS011;18176;49.502;11.754;2022-08-01T22:20:57;3.85;;;3.55;;
21183;SDS011;18176;49.502;11.754;2022-08-01T22:24:57;5.32;;;3.75;;
21183;SDS011;18176;49.502;11.754;2022-08-01T22:28:55;4.80;;;3.50;;
21183;SDS011;18176;49.502;11.754;2022-08-01T22:32:54;4.82;;;3.78;;
21183;SDS011;18176;49.502;11.754;2022-08-01T22:37:12;3.75;;;3.45;;
21183;SDS011;18176;49.502;11.754;2022-08-01T22:41:14;4.28;;;3.80;;
21183;SDS011;18176;49.502;11.754;2022-08-01T22:45:17;3.90;;;3.50;;
21183;SDS011;18176;49.502;11.754;2022-08-01T22:49:30;7.32;;;3.50;;
21183;SDS011;18176;49.502;11.754;2022-08-01T22:57:55;3.70;;;3.20;;
21183;SDS011;18176;49.502;11.754;2022-08-01T23:01:55;4.63;;;3.55;;
21183;SDS011;18176;49.502;11.754;2022-08-01T23:06:21;5.95;;;3.83;;
21183;SDS011;18176;49.502;11.754;2022-08-01T23:10:25;3.92;;;3.58;;
21183;SDS011;18176;49.502;11.754;2022-08-01T23:14:22;4.07;;;3.67;;
21183;SDS011;18176;49.502;11.754;2022-08-01T23:18:23;4.57;;;3.70;;
21183;SDS011;18176;49.502;11.754;2022-08-01T23:22:21;3.72;;;3.42;;
21183;SDS011;18176;49.502;11.754;2022-08-01T23:26:23;4.18;;;3.72;;
21183;SDS011;18176;49.502;11.754;2022-08-01T23:30:25;4.07;;;3.67;;
21183;SDS011;18176;49.502;11.754;2022-08-01T23:34:25;3.92;;;3.53;;
21183;SDS011;18176;49.502;11.754;2022-08-01T23:38:22;3.70;;;3.15;;
21183;SDS011;18176;49.502;11.754;2022-08-01T23:42:19;5.30;;;3.88;;
21183;SDS011;18176;49.502;11.754;2022-08-01T23:46:17;5.50;;;3.80;;
21183;SDS011;18176;49.502;11.754;2022-08-01T23:50:14;5.40;;;3.63;;
21183;SDS011;18176;49.502;11.754;2022-08-01T23:54:11;3.95;;;3.60;;
21183;SDS011;18176;49.502;11.754;2022-08-01T23:58:09;4.20;;;3.80;;
